Amasa, Michigan
Current Conditions -  °F | °C
As of 9:54 AM on Friday 21 Nov 2014 (Local Time) from KIMT Reporting Station
Scattered Clouds Scattered Clouds  
Wind Chill: -1°   Ceiling: Unl
Heat Index: 14°   Visibility: 10mi
Dew Point:   Wind: 14mph
Humidity: 56%   Direction: 200°SSW
Pressure: 30.23"   Gusts: NA
Location:  46.23°N, 88.45°W
Report Text: KIMT 211554Z AUTO 20012KT 10SM SCT110 M10/M17 A3023 RMK AO2 SLP266 T11001172
Loading
Personal Weather Stations






























Interactive Weather Map New forecast layout! Learn more

10-Day Weather Forecast

Advertisements
Track Severe Weather on mobile